createdAt,value
2023-02-11T00:00:12.821Z,96.70
2023-02-11T00:03:55.092Z,96.60
2023-02-11T00:07:37.320Z,96.60
2023-02-11T00:11:21.038Z,96.60
2023-02-11T00:15:03.494Z,96.60
2023-02-11T00:18:45.524Z,96.50
2023-02-11T00:22:27.422Z,96.60
2023-02-11T00:26:14.976Z,96.50
2023-02-11T00:29:56.938Z,96.50
2023-02-11T00:33:38.826Z,96.50
2023-02-11T00:37:20.910Z,96.40
2023-02-11T00:41:02.749Z,96.40
2023-02-11T00:44:44.507Z,96.40
2023-02-11T00:48:26.223Z,96.40
2023-02-11T00:52:07.987Z,96.40
2023-02-11T00:55:49.898Z,96.40
2023-02-11T00:59:31.869Z,96.30
2023-02-11T01:03:13.605Z,96.30
2023-02-11T01:06:55.344Z,96.30
2023-02-11T01:10:37.060Z,96.30
2023-02-11T01:14:18.912Z,96.30
2023-02-11T01:18:01.163Z,96.30
2023-02-11T01:21:42.986Z,96.30
2023-02-11T01:25:24.749Z,96.30
2023-02-11T01:29:06.594Z,96.30
2023-02-11T01:32:48.374Z,96.20
2023-02-11T01:36:30.452Z,96.20
2023-02-11T01:40:17.004Z,96.20
2023-02-11T01:43:58.724Z,96.20
2023-02-11T01:47:40.513Z,96.20
2023-02-11T01:51:30.993Z,96.10
2023-02-11T01:55:32.191Z,96.10
2023-02-11T01:59:20.393Z,96.10
2023-02-11T02:03:11.379Z,96.00
2023-02-11T02:07:01.612Z,96.00
2023-02-11T02:10:50.057Z,96.00
2023-02-11T02:14:31.765Z,96.00
2023-02-11T02:18:48.913Z,96.00
2023-02-11T02:23:06.238Z,95.90
2023-02-11T02:27:09.958Z,95.80
2023-02-11T02:31:07.063Z,95.80
2023-02-11T02:34:56.116Z,95.90
2023-02-11T02:38:46.729Z,95.80
2023-02-11T02:42:28.887Z,95.70
2023-02-11T02:46:32.318Z,95.70
2023-02-11T02:50:16.729Z,95.70
2023-02-11T02:54:42.657Z,95.70
2023-02-11T02:58:41.427Z,95.60
2023-02-11T03:02:31.413Z,95.50
2023-02-11T03:06:38.458Z,95.60
2023-02-11T03:10:31.526Z,95.50
2023-02-11T03:14:17.141Z,95.60
2023-02-11T03:18:01.909Z,95.50
2023-02-11T03:21:46.404Z,95.50
2023-02-11T03:25:34.940Z,95.50
2023-02-11T03:29:43.605Z,95.50
2023-02-11T03:33:32.572Z,95.30
2023-02-11T03:37:40.841Z,95.40
2023-02-11T03:41:24.282Z,95.20
2023-02-11T03:45:10.697Z,95.40
2023-02-11T03:48:55.866Z,95.30
2023-02-11T03:52:38.501Z,95.30
2023-02-11T03:56:24.998Z,95.30
2023-02-11T04:00:08.452Z,95.40
2023-02-11T04:03:50.172Z,95.40
2023-02-11T04:07:32.096Z,95.40
2023-02-11T04:11:13.823Z,95.40
2023-02-11T04:14:55.618Z,95.40
2023-02-11T04:18:37.372Z,95.40
2023-02-11T04:22:19.143Z,95.40
2023-02-11T04:26:00.872Z,95.40
2023-02-11T04:29:42.710Z,95.40
2023-02-11T04:33:24.744Z,95.40
2023-02-11T04:37:07.286Z,95.40
2023-02-11T04:40:48.997Z,95.40
2023-02-11T04:44:30.809Z,95.50
2023-02-11T04:48:12.521Z,95.50
2023-02-11T04:51:54.297Z,95.50
2023-02-11T04:55:36.014Z,95.50
2023-02-11T04:59:17.839Z,95.50
2023-02-11T05:02:59.556Z,95.50
2023-02-11T05:06:41.285Z,95.60
2023-02-11T05:10:23.168Z,95.60
2023-02-11T05:14:05.405Z,95.60
2023-02-11T05:17:47.240Z,95.60
2023-02-11T05:21:29.017Z,95.60
2023-02-11T05:25:10.959Z,95.70
2023-02-11T05:28:53.777Z,95.70
2023-02-11T05:32:35.588Z,95.80
2023-02-11T05:36:17.467Z,95.80
2023-02-11T05:39:59.212Z,95.80
2023-02-11T05:43:41.014Z,95.80
2023-02-11T05:47:22.872Z,95.80
2023-02-11T05:51:04.887Z,95.70
2023-02-11T05:54:46.662Z,95.80
2023-02-11T05:58:28.789Z,95.80
2023-02-11T06:02:10.722Z,95.80
2023-02-11T06:05:52.697Z,95.80
2023-02-11T06:09:34.596Z,95.80
2023-02-11T06:13:18.601Z,95.80
2023-02-11T06:17:00.961Z,95.90
2023-02-11T06:20:42.754Z,95.90
2023-02-11T06:24:51.083Z,96.00
2023-02-11T06:28:26.424Z,96.00
2023-02-11T06:32:15.870Z,95.90
2023-02-11T06:36:12.580Z,95.80
2023-02-11T06:39:54.496Z,95.90
2023-02-11T06:43:36.296Z,95.90
2023-02-11T06:47:18.172Z,95.90
2023-02-11T06:51:05.107Z,96.00
2023-02-11T06:54:46.869Z,96.20
2023-02-11T06:58:28.617Z,96.00
2023-02-11T07:02:11.026Z,96.00
2023-02-11T07:05:53.045Z,96.00
2023-02-11T07:09:35.061Z,96.10
2023-02-11T07:13:16.900Z,96.10
2023-02-11T07:16:58.896Z,96.10
2023-02-11T07:20:41.157Z,96.20
2023-02-11T07:24:23.333Z,96.20
2023-02-11T07:28:05.469Z,96.20
2023-02-11T07:31:47.508Z,96.20
2023-02-11T07:35:29.333Z,96.20
2023-02-11T07:39:11.260Z,96.20
2023-02-11T07:42:53.117Z,96.20
2023-02-11T07:46:35.728Z,96.20
2023-02-11T07:50:17.965Z,96.20
2023-02-11T07:54:00.731Z,96.30
2023-02-11T07:57:42.549Z,96.30
2023-02-11T08:01:28.242Z,96.30
2023-02-11T08:05:10.286Z,96.40
2023-02-11T08:08:52.332Z,96.30
2023-02-11T08:12:34.084Z,96.40
2023-02-11T08:16:21.655Z,96.40
2023-02-11T08:20:04.822Z,96.50
2023-02-11T08:23:47.176Z,96.40
2023-02-11T08:27:29.038Z,96.40
2023-02-11T08:31:17.515Z,96.40
2023-02-11T08:34:59.538Z,96.60
2023-02-11T08:38:43.717Z,96.50
2023-02-11T08:42:25.692Z,96.50
2023-02-11T08:46:08.909Z,96.50
2023-02-11T08:49:50.778Z,96.50
2023-02-11T08:53:32.646Z,96.50
2023-02-11T08:57:14.446Z,96.50
2023-02-11T09:00:56.320Z,96.50
2023-02-11T09:04:38.130Z,96.60
2023-02-11T09:08:20.959Z,96.50
2023-02-11T09:12:02.866Z,96.50
2023-02-11T09:15:47.506Z,96.60
2023-02-11T09:19:29.338Z,96.70
2023-02-11T09:23:11.251Z,96.70
2023-02-11T09:26:52.966Z,96.70
2023-02-11T09:30:36.175Z,96.70
2023-02-11T09:34:17.862Z,96.70
2023-02-11T09:37:59.602Z,96.90
2023-02-11T09:42:18.432Z,96.80
2023-02-11T09:46:00.435Z,97.00
2023-02-11T09:49:48.794Z,96.90
2023-02-11T09:53:37.315Z,96.90
2023-02-11T09:57:28.270Z,96.90
2023-02-11T10:01:41.891Z,96.90
2023-02-11T10:05:48.566Z,96.90
2023-02-11T10:09:48.943Z,96.90
2023-02-11T10:14:02.308Z,96.90
2023-02-11T10:17:49.780Z,96.80
2023-02-11T10:21:46.557Z,96.90
2023-02-11T10:25:45.467Z,96.70
2023-02-11T10:29:44.174Z,96.80
2023-02-11T10:33:28.315Z,96.70
2023-02-11T10:37:14.674Z,96.70
2023-02-11T10:40:56.662Z,96.70
2023-02-11T10:44:43.618Z,96.70
2023-02-11T10:48:53.743Z,96.60
2023-02-11T10:52:35.499Z,96.30
2023-02-11T10:56:29.129Z,96.40
2023-02-11T11:00:30.699Z,96.30
2023-02-11T11:04:30.668Z,96.20
2023-02-11T11:08:13.257Z,96.20
2023-02-11T11:11:55.054Z,96.50
2023-02-11T11:15:36.853Z,96.50
2023-02-11T11:19:24.041Z,96.50
2023-02-11T11:23:16.067Z,96.30
2023-02-11T11:27:01.404Z,96.10
2023-02-11T11:30:43.774Z,96.20
2023-02-11T11:34:30.288Z,96.30
2023-02-11T11:38:14.982Z,96.00
2023-02-11T11:42:27.300Z,96.10
2023-02-11T11:46:12.220Z,96.00
2023-02-11T11:50:36.520Z,96.00
2023-02-11T11:54:27.644Z,95.50
2023-02-11T11:58:28.255Z,96.00
2023-02-11T12:02:19.611Z,95.50
2023-02-11T12:06:58.116Z,95.60
2023-02-11T12:11:16.920Z,95.10
2023-02-11T12:15:07.946Z,94.90
2023-02-11T12:19:14.804Z,95.20
2023-02-11T12:23:02.275Z,95.30
2023-02-11T12:26:55.860Z,95.50
2023-02-11T12:31:27.677Z,95.50
2023-02-11T12:35:32.222Z,95.10
2023-02-11T12:39:37.132Z,95.00
2023-02-11T12:43:35.446Z,94.80
2023-02-11T12:47:34.649Z,95.10
2023-02-11T12:51:40.020Z,94.80
2023-02-11T12:55:28.420Z,95.10
2023-02-11T12:59:38.507Z,95.00
2023-02-11T13:03:33.721Z,94.70
2023-02-11T13:07:22.937Z,94.70
2023-02-11T13:11:14.426Z,94.70
2023-02-11T13:15:01.892Z,94.70
2023-02-11T13:18:56.233Z,94.70
2023-02-11T13:22:46.384Z,94.40
2023-02-11T13:26:50.324Z,94.40
2023-02-11T13:30:35.246Z,94.20
2023-02-11T13:34:46.634Z,94.40
2023-02-11T13:38:30.578Z,93.90
2023-02-11T13:42:18.968Z,94.50
2023-02-11T13:46:12.425Z,94.40
2023-02-11T13:49:54.362Z,94.10
2023-02-11T13:53:58.197Z,94.20
2023-02-11T13:57:41.401Z,94.10
2023-02-11T14:02:01.781Z,94.50
2023-02-11T14:06:28.263Z,94.10
2023-02-11T14:10:43.957Z,93.70
2023-02-11T14:14:30.685Z,93.70
2023-02-11T14:18:49.755Z,94.40
2023-02-11T14:22:46.865Z,93.60
2023-02-11T14:26:35.191Z,93.30
2023-02-11T14:30:33.680Z,93.40
2023-02-11T14:34:15.490Z,93.10
2023-02-11T14:38:22.197Z,93.80
2023-02-11T14:42:05.050Z,91.80
2023-02-11T14:45:51.481Z,93.20
2023-02-11T14:49:37.838Z,92.70
2023-02-11T14:53:23.504Z,92.70
2023-02-11T14:57:08.063Z,92.70
2023-02-11T15:00:55.568Z,92.90
2023-02-11T15:04:37.822Z,93.10
2023-02-11T15:08:19.607Z,93.00
2023-02-11T15:12:01.812Z,93.00
2023-02-11T15:15:46.522Z,93.00
2023-02-11T15:19:35.999Z,92.90
2023-02-11T15:23:29.697Z,92.60
2023-02-11T15:27:15.513Z,92.30
2023-02-11T15:31:15.802Z,92.90
2023-02-11T15:34:58.517Z,92.20
2023-02-11T15:38:41.305Z,92.90
2023-02-11T15:42:28.786Z,92.80
2023-02-11T15:46:14.718Z,92.40
2023-02-11T15:49:56.566Z,92.70
2023-02-11T15:53:42.277Z,92.80
2023-02-11T15:57:24.320Z,92.40
2023-02-11T16:01:08.630Z,92.60
2023-02-11T16:04:57.510Z,92.40
2023-02-11T16:08:41.551Z,92.00
2023-02-11T16:12:27.108Z,92.50
2023-02-11T16:16:20.399Z,92.30
2023-02-11T16:20:02.345Z,91.80
2023-02-11T16:23:51.605Z,92.40
2023-02-11T16:27:40.301Z,91.90
2023-02-11T16:31:22.192Z,92.00
2023-02-11T16:35:11.119Z,92.00
2023-02-11T16:38:52.874Z,91.60
2023-02-11T16:42:34.608Z,91.70
2023-02-11T16:46:16.404Z,91.70
2023-02-11T16:49:59.271Z,92.00
2023-02-11T16:53:41.207Z,91.70
2023-02-11T16:57:25.714Z,91.80
2023-02-11T17:01:08.441Z,91.60
2023-02-11T17:04:50.463Z,91.80
2023-02-11T17:08:32.259Z,91.70
2023-02-11T17:12:14.169Z,91.70
2023-02-11T17:15:55.979Z,91.70
2023-02-11T17:19:38.568Z,91.70
2023-02-11T17:23:21.695Z,91.70
2023-02-11T17:27:04.274Z,91.70
2023-02-11T17:30:46.259Z,91.70
2023-02-11T17:34:29.210Z,91.70
2023-02-11T17:38:11.091Z,91.80
2023-02-11T17:41:52.976Z,91.70
2023-02-11T17:45:35.928Z,91.60
2023-02-11T17:49:17.928Z,91.60
2023-02-11T17:52:59.763Z,91.70
2023-02-11T17:56:43.182Z,91.70
2023-02-11T18:00:24.973Z,91.70
2023-02-11T18:04:10.568Z,91.80
2023-02-11T18:07:52.367Z,91.80
2023-02-11T18:11:36.401Z,91.90
2023-02-11T18:15:18.659Z,91.90
2023-02-11T18:19:00.582Z,92.00
2023-02-11T18:22:44.189Z,92.00
2023-02-11T18:26:28.155Z,92.00
2023-02-11T18:30:16.237Z,92.00
2023-02-11T18:33:58.059Z,91.80
2023-02-11T18:37:41.037Z,92.00
2023-02-11T18:41:22.827Z,92.00
2023-02-11T18:45:07.134Z,92.00
2023-02-11T18:48:50.109Z,91.90
2023-02-11T18:52:33.097Z,92.00
2023-02-11T18:56:17.592Z,92.10
2023-02-11T18:59:59.784Z,92.00
2023-02-11T19:03:42.114Z,92.10
2023-02-11T19:07:25.211Z,92.10
2023-02-11T19:11:07.083Z,92.20
2023-02-11T19:14:48.801Z,92.20
2023-02-11T19:18:30.601Z,92.20
2023-02-11T19:22:12.511Z,92.20
2023-02-11T19:25:54.473Z,92.10
2023-02-11T19:29:36.584Z,92.10
2023-02-11T19:33:18.466Z,92.10
2023-02-11T19:37:01.590Z,92.10
2023-02-11T19:40:43.864Z,92.10
2023-02-11T19:44:25.605Z,92.20
2023-02-11T19:48:07.349Z,92.20
2023-02-11T19:51:50.834Z,92.20
2023-02-11T19:55:34.946Z,92.20
2023-02-11T19:59:16.720Z,92.20
2023-02-11T20:02:58.546Z,92.40
2023-02-11T20:06:40.423Z,92.40
2023-02-11T20:10:23.862Z,92.40
2023-02-11T20:14:10.586Z,92.40
2023-02-11T20:17:52.307Z,92.70
2023-02-11T20:21:34.058Z,92.50
2023-02-11T20:25:15.837Z,92.50
2023-02-11T20:28:59.048Z,92.50
2023-02-11T20:32:40.826Z,92.60
2023-02-11T20:36:24.535Z,92.60
2023-02-11T20:40:07.671Z,92.60
2023-02-11T20:43:53.088Z,92.70
2023-02-11T20:47:34.844Z,92.70
2023-02-11T20:51:19.698Z,92.70
2023-02-11T20:55:01.650Z,92.80
2023-02-11T20:58:43.495Z,92.80
2023-02-11T21:02:25.251Z,92.80
2023-02-11T21:06:08.023Z,92.80
2023-02-11T21:09:50.492Z,92.90
2023-02-11T21:13:32.313Z,92.90
2023-02-11T21:17:14.049Z,92.80
2023-02-11T21:20:55.963Z,92.80
2023-02-11T21:24:37.663Z,92.90
2023-02-11T21:28:23.895Z,92.90
2023-02-11T21:32:05.773Z,92.90
2023-02-11T21:35:47.726Z,92.90
2023-02-11T21:39:29.498Z,92.90
2023-02-11T21:43:11.333Z,92.90
2023-02-11T21:46:53.163Z,92.90
2023-02-11T21:50:37.771Z,92.90
2023-02-11T21:54:20.078Z,92.90
2023-02-11T21:58:02.258Z,93.00
2023-02-11T22:01:45.865Z,93.00
2023-02-11T22:05:27.665Z,92.90
2023-02-11T22:09:11.065Z,93.00
2023-02-11T22:12:52.821Z,93.00
2023-02-11T22:16:35.082Z,93.00
2023-02-11T22:20:17.592Z,93.00
2023-02-11T22:23:59.446Z,93.00
2023-02-11T22:27:41.222Z,93.00
2023-02-11T22:31:32.039Z,93.00
2023-02-11T22:35:13.920Z,93.00
2023-02-11T22:38:56.298Z,93.00
2023-02-11T22:42:38.035Z,93.00
2023-02-11T22:46:20.085Z,92.90
2023-02-11T22:50:01.925Z,93.20
2023-02-11T22:53:44.455Z,92.90
2023-02-11T22:57:26.352Z,92.90
2023-02-11T23:01:08.599Z,93.00
2023-02-11T23:04:50.509Z,93.00
2023-02-11T23:08:32.869Z,93.10
2023-02-11T23:12:14.614Z,93.00
2023-02-11T23:15:56.691Z,93.00
2023-02-11T23:19:39.182Z,93.00
2023-02-11T23:23:20.932Z,93.00
2023-02-11T23:27:02.800Z,93.00
2023-02-11T23:30:44.592Z,93.10
2023-02-11T23:34:26.405Z,93.10
2023-02-11T23:38:08.180Z,93.10
2023-02-11T23:41:52.456Z,93.20
2023-02-11T23:45:35.386Z,93.20
2023-02-11T23:49:17.301Z,93.20
2023-02-11T23:52:59.020Z,93.10
2023-02-11T23:56:42.568Z,93.10
